createdAt,value
2024-02-09T00:00:44.669Z,15.80
2024-02-09T00:03:36.901Z,13.50
2024-02-09T00:06:07.655Z,14.70
2024-02-09T00:08:42.124Z,15.30
2024-02-09T00:11:14.456Z,13.70
2024-02-09T00:13:45.061Z,16.10
2024-02-09T00:16:14.195Z,16.50
2024-02-09T00:18:45.837Z,15.90
2024-02-09T00:21:14.336Z,13.60
2024-02-09T00:23:42.770Z,15.50
2024-02-09T00:26:11.349Z,16.20
2024-02-09T00:28:39.890Z,16.30
2024-02-09T00:31:08.396Z,12.60
2024-02-09T00:33:36.922Z,14.60
2024-02-09T00:36:05.954Z,12.60
2024-02-09T00:38:37.907Z,14.20
2024-02-09T00:41:08.960Z,13.70
2024-02-09T00:43:37.566Z,13.50
2024-02-09T00:46:06.416Z,14.30
2024-02-09T00:48:35.125Z,14.60
2024-02-09T00:51:04.561Z,13.50
2024-02-09T00:53:32.867Z,14.40
2024-02-09T00:56:01.344Z,13.30
2024-02-09T00:58:30.107Z,15.30
2024-02-09T01:00:58.749Z,13.80
2024-02-09T01:03:27.274Z,14.70
2024-02-09T01:05:55.901Z,13.90
2024-02-09T01:08:26.154Z,13.20
2024-02-09T01:10:56.708Z,15.50
2024-02-09T01:13:43.562Z,12.80
2024-02-09T01:16:30.919Z,12.10
2024-02-09T01:19:18.249Z,13.80
2024-02-09T01:22:05.286Z,14.70
2024-02-09T01:24:52.054Z,12.80
2024-02-09T01:27:38.940Z,14.40
2024-02-09T01:30:26.572Z,16.20
2024-02-09T01:33:13.884Z,13.70
2024-02-09T01:36:01.443Z,15.50
2024-02-09T01:38:48.522Z,15.50
2024-02-09T01:41:35.627Z,12.70
2024-02-09T01:44:22.840Z,14.40
2024-02-09T01:47:10.272Z,14.90
2024-02-09T01:49:58.347Z,15.60
2024-02-09T01:52:48.050Z,16.30
2024-02-09T01:55:36.134Z,13.70
2024-02-09T01:58:26.171Z,14.70
2024-02-09T02:01:16.115Z,13.80
2024-02-09T02:04:06.076Z,12.50
2024-02-09T02:06:53.232Z,13.00
2024-02-09T02:09:40.117Z,13.90
2024-02-09T02:12:26.992Z,14.40
2024-02-09T02:15:14.232Z,11.90
2024-02-09T02:18:01.553Z,12.20
2024-02-09T02:20:48.406Z,11.40
2024-02-09T02:23:46.457Z,14.30
2024-02-09T02:26:33.871Z,12.00
2024-02-09T02:29:20.790Z,13.10
2024-02-09T02:32:07.986Z,12.80
2024-02-09T02:34:55.284Z,12.20
2024-02-09T02:37:42.309Z,12.20
2024-02-09T02:40:29.579Z,13.70
2024-02-09T02:42:58.116Z,15.50
2024-02-09T02:45:29.085Z,12.70
2024-02-09T02:48:16.102Z,12.10
2024-02-09T02:51:03.223Z,12.90
2024-02-09T02:53:50.321Z,11.50
2024-02-09T02:56:37.317Z,11.70
2024-02-09T02:59:24.230Z,11.80
2024-02-09T03:02:11.320Z,11.70
2024-02-09T03:04:40.017Z,13.40
2024-02-09T03:09:40.523Z,10.90
2024-02-09T03:12:09.107Z,11.80
2024-02-09T03:14:37.830Z,9.90
2024-02-09T03:17:06.453Z,12.60
2024-02-09T03:19:37.200Z,11.60
2024-02-09T03:22:06.414Z,11.90
2024-02-09T03:24:34.970Z,11.60
2024-02-09T03:27:03.600Z,11.50
2024-02-09T03:29:32.149Z,12.20
2024-02-09T03:32:00.849Z,9.80
2024-02-09T03:34:29.489Z,10.90
2024-02-09T03:36:58.419Z,12.60
2024-02-09T03:39:27.113Z,9.90
2024-02-09T03:41:55.753Z,11.30
2024-02-09T03:44:24.238Z,9.10
2024-02-09T03:46:52.811Z,8.50
2024-02-09T03:49:21.415Z,9.00
2024-02-09T03:51:50.102Z,13.60
2024-02-09T03:54:19.758Z,10.70
2024-02-09T03:56:48.383Z,11.20
2024-02-09T03:59:16.925Z,8.70
2024-02-09T04:01:45.537Z,10.10
2024-02-09T04:04:14.433Z,8.60
2024-02-09T04:06:43.199Z,9.50
2024-02-09T04:09:31.129Z,10.20
2024-02-09T04:12:00.715Z,8.70
2024-02-09T04:14:29.535Z,8.00
2024-02-09T04:17:01.096Z,8.90
2024-02-09T04:19:31.160Z,9.10
2024-02-09T04:22:00.005Z,9.70
2024-02-09T04:24:29.128Z,11.40
2024-02-09T04:26:59.381Z,7.80
2024-02-09T04:29:27.941Z,8.40
2024-02-09T04:31:57.437Z,9.50
2024-02-09T04:34:26.115Z,10.50
2024-02-09T04:36:56.979Z,8.10
2024-02-09T04:39:25.533Z,9.80
2024-02-09T04:41:54.118Z,8.90
2024-02-09T04:44:22.713Z,10.10
2024-02-09T04:46:51.772Z,8.50
2024-02-09T04:49:22.564Z,8.20
2024-02-09T04:51:51.169Z,9.50
2024-02-09T04:54:19.785Z,11.20
2024-02-09T04:56:48.502Z,8.40
2024-02-09T04:59:16.973Z,10.10
2024-02-09T05:01:45.564Z,10.40
2024-02-09T05:04:16.491Z,10.40
2024-02-09T05:06:45.264Z,9.60
2024-02-09T05:09:14.676Z,9.80
2024-02-09T05:11:45.477Z,10.90
2024-02-09T05:14:19.192Z,10.10
2024-02-09T05:16:48.827Z,10.80
2024-02-09T05:19:17.658Z,10.60
2024-02-09T05:21:46.280Z,13.20
2024-02-09T05:24:15.258Z,10.90
2024-02-09T05:26:43.985Z,9.40
2024-02-09T05:29:12.858Z,10.40
2024-02-09T05:31:44.043Z,9.10
2024-02-09T05:34:12.650Z,10.20
2024-02-09T05:36:41.554Z,9.00
2024-02-09T05:39:10.772Z,12.20
2024-02-09T05:41:39.766Z,10.30
2024-02-09T05:44:08.583Z,8.50
2024-02-09T05:46:37.262Z,10.50
2024-02-09T05:49:08.827Z,9.40
2024-02-09T05:51:37.621Z,12.50
2024-02-09T05:54:07.538Z,11.50
2024-02-09T05:56:36.380Z,10.70
2024-02-09T05:59:07.716Z,11.90
2024-02-09T06:01:37.100Z,13.50
2024-02-09T06:04:06.340Z,12.20
2024-02-09T06:06:36.001Z,11.10
2024-02-09T06:09:04.570Z,11.30
2024-02-09T06:11:33.099Z,10.40
2024-02-09T06:14:02.234Z,10.00
2024-02-09T06:16:31.450Z,10.50
2024-02-09T06:19:00.144Z,9.50
2024-02-09T06:21:29.581Z,10.90
2024-02-09T06:23:58.004Z,11.20
2024-02-09T06:26:26.573Z,8.00
2024-02-09T06:28:55.685Z,11.10
2024-02-09T06:31:28.408Z,10.20
2024-02-09T06:34:00.816Z,10.70
2024-02-09T06:36:31.128Z,9.00
2024-02-09T06:39:00.506Z,10.30
2024-02-09T06:41:31.072Z,10.50
2024-02-09T06:44:00.138Z,8.60
2024-02-09T06:46:28.749Z,9.20
2024-02-09T06:48:58.156Z,8.70
2024-02-09T06:51:26.870Z,7.70
2024-02-09T06:53:56.991Z,10.50
2024-02-09T06:56:25.722Z,11.30
2024-02-09T06:58:56.250Z,11.90
2024-02-09T07:01:25.095Z,8.50
2024-02-09T07:03:54.607Z,9.30
2024-02-09T07:08:54.798Z,12.00
2024-02-09T07:11:23.413Z,8.20
2024-02-09T07:13:52.119Z,10.50
2024-02-09T07:16:20.830Z,10.80
2024-02-09T07:18:49.406Z,9.10
2024-02-09T07:21:18.570Z,8.80
2024-02-09T07:23:52.345Z,12.40
2024-02-09T07:26:22.368Z,8.50
2024-02-09T07:28:51.334Z,8.60
2024-02-09T07:31:20.576Z,11.30
2024-02-09T07:33:50.167Z,15.20
2024-02-09T07:38:49.123Z,10.30
2024-02-09T07:41:21.181Z,12.60
2024-02-09T07:43:50.623Z,10.30
2024-02-09T07:46:21.207Z,11.40
2024-02-09T07:48:50.070Z,12.50
2024-02-09T07:51:21.892Z,10.90
2024-02-09T07:53:54.507Z,10.80
2024-02-09T07:56:26.385Z,9.90
2024-02-09T07:58:55.142Z,9.50
2024-02-09T08:01:24.014Z,11.20
2024-02-09T08:03:57.676Z,8.50
2024-02-09T08:06:26.795Z,12.30
2024-02-09T08:08:56.846Z,10.90
2024-02-09T08:11:25.417Z,9.40
2024-02-09T08:13:54.171Z,10.40
2024-02-09T08:16:23.447Z,9.60
2024-02-09T08:18:52.263Z,10.00
2024-02-09T08:21:23.653Z,10.20
2024-02-09T08:23:52.487Z,8.70
2024-02-09T08:26:21.938Z,12.20
2024-02-09T08:31:19.014Z,11.20
2024-02-09T08:33:53.601Z,10.50
2024-02-09T08:36:24.889Z,9.80
2024-02-09T08:38:53.934Z,10.80
2024-02-09T08:41:22.456Z,9.70
2024-02-09T08:43:51.162Z,10.10
2024-02-09T08:46:20.091Z,11.50
2024-02-09T08:48:50.290Z,8.20
2024-02-09T08:51:18.991Z,11.60
2024-02-09T08:53:48.839Z,8.30
2024-02-09T08:56:17.940Z,10.30
2024-02-09T08:58:47.755Z,9.40
2024-02-09T09:01:16.504Z,8.30
2024-02-09T09:03:47.601Z,9.80
2024-02-09T09:06:16.958Z,8.40
2024-02-09T09:08:50.529Z,10.40
2024-02-09T09:11:22.070Z,9.60
2024-02-09T09:13:50.686Z,10.30
2024-02-09T09:16:20.911Z,8.50
2024-02-09T09:18:52.013Z,9.70
2024-02-09T09:21:21.365Z,8.50
2024-02-09T09:23:49.951Z,12.20
2024-02-09T09:26:25.972Z,11.70
2024-02-09T09:29:02.006Z,9.70
2024-02-09T09:31:31.550Z,11.40
2024-02-09T09:36:32.499Z,14.40
2024-02-09T09:39:03.795Z,9.50
2024-02-09T09:41:44.507Z,11.30
2024-02-09T09:44:13.149Z,12.70
2024-02-09T09:46:46.718Z,11.60
2024-02-09T09:49:16.240Z,12.40
2024-02-09T09:54:24.144Z,11.40
2024-02-09T09:56:55.079Z,9.40
2024-02-09T09:59:23.857Z,10.80
2024-02-09T10:01:53.149Z,9.30
2024-02-09T10:04:21.857Z,9.90
2024-02-09T10:06:51.255Z,11.00
2024-02-09T10:11:50.773Z,10.80
2024-02-09T10:14:21.866Z,11.60
2024-02-09T10:16:50.667Z,10.50
2024-02-09T10:19:19.509Z,11.10
2024-02-09T10:24:20.100Z,11.40
2024-02-09T10:26:51.345Z,12.10
2024-02-09T10:29:23.244Z,10.10
2024-02-09T10:31:56.950Z,11.60
2024-02-09T10:34:28.952Z,9.20
2024-02-09T10:36:59.134Z,10.10
2024-02-09T10:39:28.716Z,10.50
2024-02-09T10:42:04.240Z,11.80
2024-02-09T10:44:34.155Z,14.40
2024-02-09T10:47:05.432Z,9.70
2024-02-09T10:49:38.149Z,9.10
2024-02-09T10:52:08.824Z,11.40
2024-02-09T10:54:38.897Z,9.60
2024-02-09T10:57:10.619Z,10.00
2024-02-09T10:59:41.505Z,10.50
2024-02-09T11:02:12.289Z,10.30
2024-02-09T11:04:42.150Z,9.70
2024-02-09T11:07:11.059Z,11.80
2024-02-09T11:09:41.027Z,9.70
2024-02-09T11:12:15.042Z,11.20
2024-02-09T11:17:23.152Z,8.90
2024-02-09T11:19:53.229Z,10.30
2024-02-09T11:22:31.932Z,10.30
2024-02-09T11:25:00.885Z,9.40
2024-02-09T11:27:32.676Z,10.50
2024-02-09T11:30:01.401Z,10.70
2024-02-09T11:32:30.101Z,9.20
2024-02-09T11:34:59.177Z,9.80
2024-02-09T11:37:27.886Z,7.80
2024-02-09T11:39:56.646Z,10.10
2024-02-09T11:42:34.706Z,9.70
2024-02-09T11:45:05.948Z,9.30
2024-02-09T11:50:03.106Z,10.40
2024-02-09T11:52:31.714Z,8.60
2024-02-09T11:55:03.470Z,10.10
2024-02-09T11:57:32.173Z,13.40
2024-02-09T12:00:01.087Z,10.40
2024-02-09T12:02:33.018Z,10.10
2024-02-09T12:05:01.979Z,10.50
2024-02-09T12:07:31.121Z,9.60
2024-02-09T12:10:00.241Z,9.90
2024-02-09T12:12:28.830Z,9.90
2024-02-09T12:14:57.357Z,9.50
2024-02-09T12:17:26.776Z,10.50
2024-02-09T12:19:56.292Z,9.10
2024-02-09T12:25:01.362Z,9.00
2024-02-09T12:27:30.793Z,7.30
2024-02-09T12:32:28.046Z,9.10
2024-02-09T12:34:56.892Z,7.20
2024-02-09T12:37:25.935Z,8.90
2024-02-09T12:39:58.004Z,9.80
2024-02-09T12:42:34.457Z,7.80
2024-02-09T12:45:03.931Z,7.30
2024-02-09T12:50:04.833Z,9.70
2024-02-09T12:52:34.234Z,8.00
2024-02-09T12:55:02.884Z,8.60
2024-02-09T12:57:31.694Z,9.10
2024-02-09T13:00:00.294Z,9.20
2024-02-09T13:02:29.487Z,9.50
2024-02-09T13:04:57.928Z,8.40
2024-02-09T13:07:26.653Z,11.60
2024-02-09T13:09:58.896Z,8.20
2024-02-09T13:12:30.203Z,8.50
2024-02-09T13:15:00.461Z,7.50
2024-02-09T13:17:29.200Z,8.30
2024-02-09T13:19:57.774Z,7.30
2024-02-09T13:22:26.403Z,8.80
2024-02-09T13:24:54.962Z,8.20
2024-02-09T13:27:23.495Z,8.90
2024-02-09T13:29:52.386Z,6.80
2024-02-09T13:32:20.980Z,6.60
2024-02-09T13:34:49.581Z,7.50
2024-02-09T13:37:18.287Z,6.40
2024-02-09T13:39:47.184Z,6.10
2024-02-09T13:42:17.143Z,6.60
2024-02-09T13:44:46.067Z,8.70
2024-02-09T13:47:14.758Z,8.50
2024-02-09T13:49:43.324Z,9.30
2024-02-09T13:52:11.891Z,9.20
2024-02-09T13:54:40.487Z,8.00
2024-02-09T13:57:09.266Z,9.20
2024-02-09T13:59:38.552Z,9.80
2024-02-09T14:04:39.191Z,10.20
2024-02-09T14:07:10.057Z,9.80
2024-02-09T14:09:39.931Z,9.60
2024-02-09T14:12:08.855Z,9.00
2024-02-09T14:14:37.370Z,7.30
2024-02-09T14:17:07.032Z,8.80
2024-02-09T14:22:06.436Z,9.60
2024-02-09T14:24:39.341Z,10.00
2024-02-09T14:27:08.510Z,6.60
2024-02-09T14:29:41.034Z,7.30
2024-02-09T14:32:09.829Z,7.70
2024-02-09T14:34:39.531Z,6.70
2024-02-09T14:37:11.804Z,9.40
2024-02-09T14:39:43.392Z,9.80
2024-02-09T14:42:15.642Z,10.70
2024-02-09T14:44:49.462Z,9.60
2024-02-09T14:47:18.856Z,9.40
2024-02-09T14:49:49.955Z,9.10
2024-02-09T14:52:20.172Z,8.80
2024-02-09T14:57:24.414Z,8.10
2024-02-09T14:59:53.003Z,10.50
2024-02-09T15:02:21.459Z,11.70
2024-02-09T15:04:52.276Z,8.20
2024-02-09T15:07:22.492Z,11.30
2024-02-09T15:09:51.069Z,10.00
2024-02-09T15:12:20.204Z,10.80
2024-02-09T15:14:51.817Z,9.10
2024-02-09T15:17:24.512Z,10.90
2024-02-09T15:19:53.998Z,10.70
2024-02-09T15:22:22.923Z,10.30
2024-02-09T15:24:51.646Z,10.00
2024-02-09T15:27:20.211Z,11.70
2024-02-09T15:29:49.074Z,11.70
2024-02-09T15:32:18.622Z,13.90
2024-02-09T15:34:47.444Z,13.70
2024-02-09T15:37:16.325Z,14.10
2024-02-09T15:39:44.904Z,12.00
2024-02-09T15:42:16.317Z,13.60
2024-02-09T15:44:45.420Z,13.00
2024-02-09T15:47:13.947Z,12.20
2024-02-09T15:49:42.730Z,17.50
2024-02-09T15:52:12.209Z,15.90
2024-02-09T15:54:42.359Z,14.90
2024-02-09T15:57:10.878Z,18.50
2024-02-09T15:59:41.343Z,16.90
2024-02-09T16:02:09.892Z,16.40
2024-02-09T16:04:38.584Z,16.70
2024-02-09T16:07:07.394Z,14.60
2024-02-09T16:09:36.148Z,17.40
2024-02-09T16:12:10.085Z,16.00
2024-02-09T16:14:40.320Z,15.70
2024-02-09T16:17:08.979Z,16.80
2024-02-09T16:19:38.166Z,16.30
2024-02-09T16:22:07.019Z,17.00
2024-02-09T16:24:35.700Z,14.20
2024-02-09T16:27:04.414Z,16.50
2024-02-09T16:29:32.938Z,17.50
2024-02-09T16:32:01.447Z,21.00
2024-02-09T16:34:30.910Z,16.70
2024-02-09T16:37:01.631Z,16.90
2024-02-09T16:39:30.228Z,19.10
2024-02-09T16:41:59.094Z,13.80
2024-02-09T16:44:27.822Z,12.30
2024-02-09T16:46:57.473Z,14.90
2024-02-09T16:49:28.946Z,15.60
2024-02-09T16:51:57.621Z,14.70
2024-02-09T16:54:26.329Z,15.30
2024-02-09T16:56:54.907Z,19.10
2024-02-09T16:59:23.544Z,15.20
2024-02-09T17:01:52.406Z,17.20
2024-02-09T17:04:21.469Z,18.70
2024-02-09T17:06:50.551Z,19.30
2024-02-09T17:09:23.474Z,16.40
2024-02-09T17:11:57.078Z,17.90
2024-02-09T17:14:25.711Z,18.40
2024-02-09T17:17:00.726Z,19.00
2024-02-09T17:19:30.285Z,18.20
2024-02-09T17:22:02.189Z,18.00
2024-02-09T17:24:30.946Z,21.10
2024-02-09T17:27:01.350Z,18.40
2024-02-09T17:29:30.003Z,14.80
2024-02-09T17:31:58.699Z,17.60
2024-02-09T17:34:29.277Z,16.40
2024-02-09T17:36:57.862Z,18.60
2024-02-09T17:39:28.841Z,17.30
2024-02-09T17:41:57.386Z,19.30
2024-02-09T17:44:25.970Z,17.00
2024-02-09T17:46:54.772Z,15.00
2024-02-09T17:49:24.411Z,15.50
2024-02-09T17:51:52.982Z,16.40
2024-02-09T17:54:22.261Z,17.70
2024-02-09T17:56:50.913Z,15.70
2024-02-09T17:59:19.758Z,13.00
2024-02-09T18:01:48.448Z,15.90
2024-02-09T18:04:17.193Z,20.10
2024-02-09T18:06:45.822Z,16.90
2024-02-09T18:09:17.108Z,17.30
2024-02-09T18:11:46.762Z,14.30
2024-02-09T18:14:15.400Z,15.60
2024-02-09T18:16:44.240Z,15.50
2024-02-09T18:19:12.959Z,14.80
2024-02-09T18:21:41.555Z,13.50
2024-02-09T18:24:11.311Z,16.10
2024-02-09T18:26:43.370Z,13.10
2024-02-09T18:29:12.071Z,12.70
2024-02-09T18:31:42.345Z,11.40
2024-02-09T18:34:11.152Z,11.60
2024-02-09T18:36:40.334Z,12.00
2024-02-09T18:39:10.339Z,13.30
2024-02-09T18:41:44.667Z,13.50
2024-02-09T18:44:16.303Z,14.20
2024-02-09T18:47:02.900Z,13.40
2024-02-09T18:49:32.218Z,11.60
2024-02-09T18:52:01.782Z,14.10
2024-02-09T18:56:58.678Z,14.40
2024-02-09T18:59:27.250Z,12.50
2024-02-09T19:01:56.854Z,13.50
2024-02-09T19:04:25.380Z,15.50
2024-02-09T19:06:55.432Z,15.20
2024-02-09T19:09:24.032Z,12.20
2024-02-09T19:11:53.036Z,14.00
2024-02-09T19:14:22.710Z,15.10
2024-02-09T19:16:52.258Z,13.70
2024-02-09T19:19:22.087Z,13.30
2024-02-09T19:21:51.075Z,14.70
2024-02-09T19:24:20.521Z,13.60
2024-02-09T19:29:17.409Z,14.00
2024-02-09T19:31:46.273Z,14.40
2024-02-09T19:34:15.736Z,16.00
2024-02-09T19:39:13.950Z,15.90
2024-02-09T19:41:46.601Z,13.30
2024-02-09T19:44:18.512Z,12.80
2024-02-09T19:46:52.109Z,16.30
2024-02-09T19:49:23.037Z,15.30
2024-02-09T19:51:52.148Z,14.50
2024-02-09T19:54:22.103Z,13.20
2024-02-09T19:56:56.449Z,16.50
2024-02-09T19:59:26.707Z,15.40
2024-02-09T20:01:55.362Z,16.80
2024-02-09T20:04:24.236Z,14.30
2024-02-09T20:06:54.118Z,14.40
2024-02-09T20:09:22.757Z,14.90
2024-02-09T20:11:51.845Z,14.60
2024-02-09T20:14:21.352Z,15.00
2024-02-09T20:19:20.516Z,13.80
2024-02-09T20:21:49.161Z,13.50
2024-02-09T20:24:20.028Z,16.10
2024-02-09T20:26:49.329Z,15.10
2024-02-09T20:29:18.710Z,14.60
2024-02-09T20:31:49.152Z,14.40
2024-02-09T20:34:18.802Z,15.20
2024-02-09T20:39:16.871Z,13.10
2024-02-09T20:41:45.373Z,14.60
2024-02-09T20:44:16.514Z,14.80
2024-02-09T20:46:47.750Z,13.30
2024-02-09T20:49:17.083Z,11.90
2024-02-09T20:51:46.367Z,13.30
2024-02-09T20:54:15.812Z,14.20
2024-02-09T20:56:44.447Z,14.20
2024-02-09T20:59:17.046Z,14.40
2024-02-09T21:01:49.130Z,17.00
2024-02-09T21:04:17.997Z,15.30
2024-02-09T21:06:46.634Z,14.20
2024-02-09T21:09:16.916Z,13.80
2024-02-09T21:11:45.495Z,14.40
2024-02-09T21:14:14.319Z,13.70
2024-02-09T21:16:42.925Z,14.90
2024-02-09T21:19:11.569Z,13.30
2024-02-09T21:21:40.266Z,15.90
2024-02-09T21:24:08.870Z,14.60
2024-02-09T21:26:37.816Z,14.70
2024-02-09T21:29:08.792Z,16.00
2024-02-09T21:31:37.604Z,14.60
2024-02-09T21:34:07.346Z,15.60
2024-02-09T21:36:36.344Z,13.50
2024-02-09T21:39:06.884Z,15.50
2024-02-09T21:55:45.570Z,15.80
2024-02-09T21:58:14.288Z,14.50
2024-02-09T22:00:45.302Z,14.10
2024-02-09T22:03:13.965Z,16.90
2024-02-09T22:05:43.861Z,14.70
2024-02-09T22:08:12.837Z,15.10
2024-02-09T22:10:41.404Z,13.40
2024-02-09T22:13:10.032Z,15.10
2024-02-09T22:15:39.500Z,16.10
2024-02-09T22:20:39.859Z,14.30
2024-02-09T22:23:09.331Z,13.10
2024-02-09T22:25:39.149Z,13.30
2024-02-09T22:28:10.642Z,13.90
2024-02-09T22:30:40.110Z,11.80
2024-02-09T22:33:08.726Z,14.20
2024-02-09T22:35:37.587Z,13.90
2024-02-09T22:38:06.269Z,14.20
2024-02-09T22:40:35.139Z,14.10
2024-02-09T22:43:07.416Z,13.90
2024-02-09T22:45:35.944Z,17.40
2024-02-09T22:48:05.565Z,13.80
2024-02-09T22:50:34.218Z,15.60
2024-02-09T22:53:02.808Z,15.80
2024-02-09T22:55:31.496Z,17.20
2024-02-09T22:58:00.117Z,19.80
2024-02-09T23:00:37.399Z,14.40
2024-02-09T23:03:08.107Z,17.30
2024-02-09T23:05:38.485Z,16.10
2024-02-09T23:08:12.815Z,15.60
2024-02-09T23:10:41.663Z,20.10
2024-02-09T23:13:10.738Z,19.50
2024-02-09T23:15:41.755Z,18.60
2024-02-09T23:18:11.771Z,16.50
2024-02-09T23:20:41.278Z,15.40
2024-02-09T23:23:13.126Z,18.40
2024-02-09T23:25:41.815Z,16.50
2024-02-09T23:28:10.446Z,15.50
2024-02-09T23:30:39.135Z,16.30
2024-02-09T23:33:07.999Z,16.70
2024-02-09T23:35:39.934Z,14.80
2024-02-09T23:38:11.110Z,15.90
2024-02-09T23:40:39.844Z,15.10
2024-02-09T23:43:08.667Z,22.30
2024-02-09T23:45:37.271Z,16.50
2024-02-09T23:48:06.748Z,15.20
2024-02-09T23:53:06.128Z,14.50
2024-02-09T23:55:34.960Z,16.50
2024-02-09T23:58:04.152Z,16.00
